createdAt,value
2023-02-13T00:03:01.494Z,10.30
2023-02-13T00:06:24.133Z,13.90
2023-02-13T00:09:50.959Z,18.60
2023-02-13T00:13:12.961Z,14.40
2023-02-13T00:16:34.822Z,9.60
2023-02-13T00:19:56.648Z,12.90
2023-02-13T00:23:18.426Z,14.00
2023-02-13T00:26:49.144Z,13.20
2023-02-13T00:30:11.407Z,12.70
2023-02-13T00:33:35.803Z,13.30
2023-02-13T00:36:57.663Z,11.40
2023-02-13T00:40:22.051Z,8.80
2023-02-13T00:43:47.581Z,11.80
2023-02-13T00:47:19.307Z,10.80
2023-02-13T00:50:41.133Z,11.10
2023-02-13T00:54:04.918Z,11.30
2023-02-13T00:57:26.702Z,10.50
2023-02-13T01:00:48.607Z,11.60
2023-02-13T01:04:10.630Z,11.90
2023-02-13T01:07:32.531Z,11.00
2023-02-13T01:10:54.912Z,11.90
2023-02-13T01:14:16.821Z,12.90
2023-02-13T01:17:39.837Z,12.30
2023-02-13T01:21:04.997Z,10.50
2023-02-13T01:24:30.151Z,13.90
2023-02-13T01:27:53.716Z,9.40
2023-02-13T01:31:16.098Z,13.20
2023-02-13T01:34:38.000Z,10.20
2023-02-13T01:37:59.765Z,12.70
2023-02-13T01:41:22.424Z,13.70
2023-02-13T01:44:55.058Z,9.80
2023-02-13T01:48:19.629Z,9.00
2023-02-13T01:52:13.806Z,11.50
2023-02-13T01:55:51.385Z,8.10
2023-02-13T01:59:18.913Z,12.20
2023-02-13T02:02:49.438Z,9.60
2023-02-13T02:06:18.437Z,12.10
2023-02-13T02:09:42.799Z,11.30
2023-02-13T02:13:20.135Z,9.80
2023-02-13T02:16:45.501Z,9.60
2023-02-13T02:20:26.866Z,13.30
2023-02-13T02:23:54.667Z,13.00
2023-02-13T02:27:26.845Z,12.90
2023-02-13T02:30:54.873Z,8.90
2023-02-13T02:34:45.839Z,12.90
2023-02-13T02:38:07.656Z,10.60
2023-02-13T02:41:52.569Z,13.20
2023-02-13T02:45:36.187Z,7.90
2023-02-13T02:49:18.547Z,10.40
2023-02-13T02:52:45.797Z,8.00
2023-02-13T02:56:27.308Z,11.30
2023-02-13T03:00:08.417Z,13.10
2023-02-13T03:03:49.816Z,11.20
2023-02-13T03:07:16.886Z,10.90
2023-02-13T03:10:58.212Z,12.70
2023-02-13T03:14:21.554Z,10.10
2023-02-13T03:18:02.707Z,11.30
2023-02-13T03:21:50.921Z,10.40
2023-02-13T03:25:12.699Z,10.50
2023-02-13T03:28:59.385Z,10.30
2023-02-13T03:32:25.499Z,9.70
2023-02-13T03:36:12.664Z,10.10
2023-02-13T03:40:04.040Z,11.30
2023-02-13T03:43:26.675Z,9.70
2023-02-13T03:46:50.539Z,14.00
2023-02-13T03:50:13.222Z,9.70
2023-02-13T03:53:40.822Z,8.00
2023-02-13T03:57:21.139Z,10.60
2023-02-13T04:00:46.614Z,9.40
2023-02-13T04:04:12.274Z,8.90
2023-02-13T04:07:35.599Z,10.20
2023-02-13T04:11:12.164Z,9.70
2023-02-13T04:14:57.967Z,9.80
2023-02-13T04:18:34.157Z,7.90
2023-02-13T04:21:58.156Z,9.40
2023-02-13T04:25:20.205Z,8.30
2023-02-13T04:28:42.024Z,9.50
2023-02-13T04:32:03.971Z,12.30
2023-02-13T04:35:25.930Z,6.90
2023-02-13T04:38:47.832Z,10.70
2023-02-13T04:42:11.140Z,9.10
2023-02-13T04:45:32.954Z,7.60
2023-02-13T04:48:54.712Z,8.10
2023-02-13T04:52:16.684Z,9.90
2023-02-13T04:55:44.727Z,13.10
2023-02-13T04:59:06.548Z,10.30
2023-02-13T05:02:28.385Z,9.10
2023-02-13T05:05:51.260Z,10.50
2023-02-13T05:09:13.120Z,11.80
2023-02-13T05:12:44.964Z,12.90
2023-02-13T05:16:07.160Z,8.40
2023-02-13T05:19:29.217Z,7.10
2023-02-13T05:23:12.209Z,7.10
2023-02-13T05:26:34.069Z,12.10
2023-02-13T05:29:56.004Z,10.60
2023-02-13T05:33:17.850Z,6.80
2023-02-13T05:36:50.316Z,9.60
2023-02-13T05:40:13.576Z,7.30
2023-02-13T05:43:35.333Z,7.70
2023-02-13T05:46:57.429Z,10.70
2023-02-13T05:53:56.144Z,7.90
2023-02-13T05:57:17.994Z,7.00
2023-02-13T06:00:39.835Z,11.30
2023-02-13T06:04:03.877Z,7.80
2023-02-13T06:07:25.928Z,7.80
2023-02-13T06:10:48.517Z,6.80
2023-02-13T06:14:14.015Z,10.40
2023-02-13T06:17:38.423Z,9.90
2023-02-13T06:21:00.291Z,11.00
2023-02-13T06:24:25.919Z,9.80
2023-02-13T06:27:47.853Z,7.90
2023-02-13T06:31:09.769Z,8.60
2023-02-13T06:34:34.205Z,11.70
2023-02-13T06:37:55.981Z,9.90
2023-02-13T06:41:17.811Z,7.50
2023-02-13T06:44:39.594Z,7.40
2023-02-13T06:48:01.866Z,11.20
2023-02-13T06:51:23.725Z,9.70
2023-02-13T06:54:47.940Z,12.50
2023-02-13T06:58:12.639Z,7.20
2023-02-13T07:01:34.440Z,8.20
2023-02-13T07:05:06.587Z,8.80
2023-02-13T07:08:28.500Z,9.60
2023-02-13T07:11:53.346Z,7.60
2023-02-13T07:15:25.725Z,9.60
2023-02-13T07:18:47.527Z,8.20
2023-02-13T07:22:16.492Z,7.40
2023-02-13T07:25:38.222Z,7.80
2023-02-13T07:29:11.552Z,7.60
2023-02-13T07:32:39.187Z,7.30
2023-02-13T07:36:04.095Z,11.50
2023-02-13T07:39:27.942Z,5.80
2023-02-13T07:46:45.901Z,8.00
2023-02-13T07:50:08.783Z,8.20
2023-02-13T07:53:33.962Z,7.60
2023-02-13T07:57:04.759Z,6.70
2023-02-13T08:00:32.353Z,8.60
2023-02-13T08:03:54.207Z,6.50
2023-02-13T08:07:26.193Z,6.80
2023-02-13T08:11:25.224Z,6.30
2023-02-13T08:14:56.440Z,5.70
2023-02-13T08:18:20.539Z,6.50
2023-02-13T08:21:46.167Z,7.20
2023-02-13T08:25:11.181Z,7.90
2023-02-13T08:28:33.132Z,5.80
2023-02-13T08:31:55.248Z,8.50
2023-02-13T08:35:17.256Z,8.80
2023-02-13T08:42:05.903Z,9.00
2023-02-13T08:45:28.091Z,6.20
2023-02-13T08:48:50.324Z,5.90
2023-02-13T08:52:12.215Z,5.40
2023-02-13T08:55:34.328Z,4.10
2023-02-13T08:58:56.187Z,6.00
2023-02-13T09:02:18.041Z,5.60
2023-02-13T09:05:39.852Z,4.20
2023-02-13T09:09:02.114Z,4.10
2023-02-13T09:12:23.996Z,4.60
2023-02-13T09:15:46.058Z,4.10
2023-02-13T09:19:07.821Z,5.30
2023-02-13T09:22:30.746Z,3.50
2023-02-13T09:25:52.895Z,4.20
2023-02-13T09:29:15.131Z,4.70
2023-02-13T09:32:37.793Z,7.10
2023-02-13T09:35:59.774Z,3.20
2023-02-13T09:39:21.817Z,5.30
2023-02-13T09:42:43.997Z,5.40
2023-02-13T09:46:13.224Z,4.20
2023-02-13T09:49:39.278Z,3.10
2023-02-13T09:53:01.553Z,4.50
2023-02-13T09:56:40.535Z,4.50
2023-02-13T10:00:23.976Z,3.20
2023-02-13T10:04:15.032Z,7.60
2023-02-13T10:07:49.365Z,3.90
2023-02-13T10:11:36.027Z,3.10
2023-02-13T10:15:23.749Z,3.40
2023-02-13T10:18:56.233Z,5.30
2023-02-13T10:22:22.960Z,5.10
2023-02-13T10:26:04.467Z,4.10
2023-02-13T10:30:09.542Z,4.40
2023-02-13T10:33:39.421Z,5.40
2023-02-13T10:37:09.679Z,5.90
2023-02-13T10:40:33.270Z,7.20
2023-02-13T10:44:29.265Z,7.00
2023-02-13T10:48:19.416Z,5.00
2023-02-13T10:52:06.692Z,5.70
2023-02-13T10:56:17.111Z,4.80
2023-02-13T10:59:44.966Z,4.30
2023-02-13T11:03:17.482Z,3.80
2023-02-13T11:06:46.837Z,3.40
2023-02-13T11:13:42.452Z,5.30
2023-02-13T11:17:06.673Z,4.50
2023-02-13T11:20:33.023Z,3.80
2023-02-13T11:23:56.409Z,2.60
2023-02-13T11:27:24.757Z,3.90
2023-02-13T11:30:49.039Z,6.40
2023-02-13T11:34:22.894Z,4.60
2023-02-13T11:37:44.747Z,4.20
2023-02-13T11:41:13.068Z,3.40
2023-02-13T11:44:34.957Z,3.50
2023-02-13T11:47:56.869Z,3.50
2023-02-13T11:51:18.855Z,3.20
2023-02-13T11:54:44.909Z,4.60
2023-02-13T11:58:15.984Z,3.50
2023-02-13T12:01:38.208Z,6.00
2023-02-13T12:05:17.774Z,3.40
2023-02-13T12:08:43.793Z,5.30
2023-02-13T12:12:07.506Z,4.40
2023-02-13T12:15:32.813Z,3.60
2023-02-13T12:18:59.057Z,4.80
2023-02-13T12:22:36.551Z,3.50
2023-02-13T12:26:13.471Z,3.20
2023-02-13T12:29:52.119Z,5.60
2023-02-13T12:34:01.840Z,3.20
2023-02-13T12:37:32.815Z,3.50
2023-02-13T12:40:58.432Z,3.60
2023-02-13T12:44:32.814Z,4.10
2023-02-13T12:48:11.656Z,3.10
2023-02-13T12:52:09.841Z,4.80
2023-02-13T12:55:45.037Z,5.10
2023-02-13T12:59:11.908Z,4.50
2023-02-13T13:03:03.953Z,4.30
2023-02-13T13:06:49.888Z,4.90
2023-02-13T13:10:47.359Z,5.30
2023-02-13T13:14:19.047Z,4.40
2023-02-13T13:18:02.905Z,4.30
2023-02-13T13:21:41.902Z,3.70
2023-02-13T13:25:19.175Z,6.20
2023-02-13T13:28:43.434Z,6.10
2023-02-13T13:32:11.450Z,4.50
2023-02-13T13:35:33.984Z,8.80
2023-02-13T13:39:04.125Z,6.70
2023-02-13T13:42:40.191Z,8.00
2023-02-13T13:46:28.707Z,4.80
2023-02-13T13:50:01.281Z,8.60
2023-02-13T13:53:23.628Z,5.50
2023-02-13T13:57:05.562Z,6.80
2023-02-13T14:08:55.825Z,6.90
2023-02-13T14:12:29.978Z,3.80
2023-02-13T14:15:52.861Z,7.10
2023-02-13T14:19:37.846Z,7.30
2023-02-13T14:23:16.387Z,8.30
2023-02-13T14:26:39.921Z,8.20
2023-02-13T14:30:05.883Z,9.40
2023-02-13T14:33:30.561Z,9.00
2023-02-13T14:37:10.772Z,11.90
2023-02-13T14:40:48.025Z,9.50
2023-02-13T14:44:51.291Z,6.00
2023-02-13T14:48:15.676Z,5.10
2023-02-13T14:51:46.291Z,7.90
2023-02-13T14:55:15.676Z,8.40
2023-02-13T15:02:16.557Z,6.30
2023-02-13T15:05:38.718Z,11.20
2023-02-13T15:09:02.813Z,6.50
2023-02-13T15:12:33.661Z,6.70
2023-02-13T15:16:01.957Z,11.00
2023-02-13T15:19:24.494Z,11.70
2023-02-13T15:22:47.082Z,5.60
2023-02-13T15:26:17.297Z,5.40
2023-02-13T15:30:04.321Z,10.90
2023-02-13T15:33:48.687Z,5.90
2023-02-13T15:37:20.956Z,8.40
2023-02-13T15:40:45.258Z,5.60
2023-02-13T15:44:07.115Z,9.20
2023-02-13T15:47:31.846Z,5.80
2023-02-13T15:50:53.740Z,7.20
2023-02-13T15:54:26.740Z,7.60
2023-02-13T15:57:50.143Z,8.10
2023-02-13T16:01:12.518Z,7.80
2023-02-13T16:05:51.777Z,5.30
2023-02-13T16:09:33.905Z,6.80
2023-02-13T16:12:57.553Z,6.20
2023-02-13T16:16:19.705Z,7.30
2023-02-13T16:20:03.679Z,6.80
2023-02-13T16:23:25.593Z,12.30
2023-02-13T16:26:52.618Z,8.80
2023-02-13T16:30:40.328Z,4.80
2023-02-13T16:34:14.236Z,6.40
2023-02-13T16:37:37.525Z,4.00
2023-02-13T16:41:19.672Z,6.50
2023-02-13T16:44:41.519Z,4.90
2023-02-13T16:48:03.987Z,9.30
2023-02-13T16:51:40.357Z,5.80
2023-02-13T16:55:04.379Z,5.00
2023-02-13T16:58:27.554Z,4.40
2023-02-13T17:02:02.638Z,6.60
2023-02-13T17:05:31.791Z,6.40
2023-02-13T17:12:32.130Z,9.10
2023-02-13T17:15:55.336Z,6.20
2023-02-13T17:19:17.306Z,3.30
2023-02-13T17:22:56.143Z,3.20
2023-02-13T17:26:18.031Z,3.70
2023-02-13T17:29:39.980Z,4.00
2023-02-13T17:33:08.971Z,4.10
2023-02-13T17:36:31.186Z,4.10
2023-02-13T17:39:54.447Z,4.00
2023-02-13T17:43:18.422Z,5.20
2023-02-13T17:46:43.308Z,4.70
2023-02-13T17:50:10.617Z,4.40
2023-02-13T17:53:32.896Z,4.00
2023-02-13T17:56:54.970Z,3.70
2023-02-13T18:00:20.098Z,4.70
2023-02-13T18:03:41.929Z,4.70
2023-02-13T18:07:04.800Z,3.40
2023-02-13T18:10:28.204Z,3.90
2023-02-13T18:13:50.033Z,7.50
2023-02-13T18:17:12.262Z,3.60
2023-02-13T18:20:34.576Z,5.20
2023-02-13T18:23:56.421Z,3.80
2023-02-13T18:27:18.420Z,3.70
2023-02-13T18:30:42.687Z,3.50
2023-02-13T18:34:04.579Z,4.20
2023-02-13T18:37:29.543Z,5.00
2023-02-13T18:40:51.427Z,3.40
2023-02-13T18:44:23.385Z,4.80
2023-02-13T18:47:50.618Z,3.20
2023-02-13T18:51:12.446Z,5.40
2023-02-13T18:54:34.221Z,6.80
2023-02-13T18:57:56.559Z,3.60
2023-02-13T19:01:21.202Z,3.20
2023-02-13T19:04:43.160Z,4.00
2023-02-13T19:08:07.015Z,4.50
2023-02-13T19:11:28.916Z,3.20
2023-02-13T19:14:50.693Z,3.60
2023-02-13T19:18:12.558Z,3.30
2023-02-13T19:21:37.029Z,3.40
2023-02-13T19:24:58.955Z,4.50
2023-02-13T19:28:21.237Z,3.70
2023-02-13T19:31:45.573Z,6.70
2023-02-13T19:35:07.805Z,3.40
2023-02-13T19:38:29.864Z,2.60
2023-02-13T19:41:51.803Z,3.40
2023-02-13T19:45:13.830Z,7.10
2023-02-13T19:48:37.294Z,4.60
2023-02-13T19:51:59.200Z,4.40
2023-02-13T19:55:24.680Z,3.00
2023-02-13T19:58:46.538Z,3.40
2023-02-13T20:02:17.352Z,5.70
2023-02-13T20:05:40.368Z,3.40
2023-02-13T20:09:05.980Z,3.70
2023-02-13T20:12:27.984Z,3.60
2023-02-13T20:15:49.979Z,5.20
2023-02-13T20:19:13.843Z,2.50
2023-02-13T20:22:35.666Z,6.70
2023-02-13T20:26:03.177Z,3.20
2023-02-13T20:29:25.055Z,2.90
2023-02-13T20:32:46.873Z,3.30
2023-02-13T20:36:10.883Z,4.80
2023-02-13T20:39:33.143Z,2.70
2023-02-13T20:42:54.971Z,4.40
2023-02-13T20:46:17.353Z,4.40
2023-02-13T20:49:39.315Z,4.40
2023-02-13T20:53:01.179Z,4.70
2023-02-13T20:56:26.979Z,3.70
2023-02-13T20:59:49.112Z,3.50
2023-02-13T21:03:10.952Z,6.20
2023-02-13T21:06:37.120Z,3.20
2023-02-13T21:09:58.891Z,5.10
2023-02-13T21:13:20.747Z,3.70
2023-02-13T21:16:43.317Z,4.10
2023-02-13T21:20:05.861Z,3.30
2023-02-13T21:23:27.748Z,3.70
2023-02-13T21:26:52.355Z,4.20
2023-02-13T21:30:14.285Z,3.60
2023-02-13T21:33:36.298Z,4.80
2023-02-13T21:36:58.176Z,5.40
2023-02-13T21:40:21.085Z,3.20
2023-02-13T21:43:47.834Z,2.80
2023-02-13T21:47:09.888Z,2.80
2023-02-13T21:50:31.760Z,3.90
2023-02-13T21:53:56.370Z,5.40
2023-02-13T21:57:18.268Z,2.40
2023-02-13T22:00:40.101Z,3.60
2023-02-13T22:04:04.697Z,3.10
2023-02-13T22:07:26.526Z,2.80
2023-02-13T22:11:00.554Z,3.10
2023-02-13T22:14:22.620Z,3.80
2023-02-13T22:17:44.631Z,4.70
2023-02-13T22:21:07.727Z,5.90
2023-02-13T22:24:29.574Z,4.20
2023-02-13T22:27:52.304Z,3.50
2023-02-13T22:31:15.002Z,3.10
2023-02-13T22:34:36.862Z,4.10
2023-02-13T22:37:58.890Z,3.80
2023-02-13T22:41:23.676Z,3.60
2023-02-13T22:44:46.099Z,3.10
2023-02-13T22:48:09.039Z,2.80
2023-02-13T22:51:33.449Z,6.00
2023-02-13T22:54:56.339Z,2.50
2023-02-13T22:58:19.550Z,2.50
2023-02-13T23:01:41.316Z,3.60
2023-02-13T23:05:03.420Z,2.30
2023-02-13T23:08:25.390Z,3.60
2023-02-13T23:12:06.299Z,3.00
2023-02-13T23:15:28.295Z,5.30
2023-02-13T23:18:51.930Z,3.20
2023-02-13T23:22:13.926Z,4.40
2023-02-13T23:25:37.657Z,2.90
2023-02-13T23:28:59.419Z,2.80
2023-02-13T23:32:21.324Z,3.40
2023-02-13T23:35:43.197Z,4.70
2023-02-13T23:39:04.999Z,3.20
2023-02-13T23:42:26.993Z,2.70
2023-02-13T23:45:49.802Z,4.40
2023-02-13T23:49:11.565Z,4.60
2023-02-13T23:52:33.375Z,3.40
2023-02-13T23:55:55.306Z,4.40
2023-02-13T23:59:20.616Z,3.30
